createdAt,value
2017-08-24T00:02:23.769Z,91.20
2017-08-24T00:04:51.420Z,91.20
2017-08-24T00:07:19.048Z,91.00
2017-08-24T00:09:46.656Z,90.90
2017-08-24T00:12:14.297Z,90.90
2017-08-24T00:14:41.943Z,90.70
2017-08-24T00:17:09.603Z,90.60
2017-08-24T00:19:37.303Z,90.60
2017-08-24T00:22:04.926Z,90.60
2017-08-24T00:24:32.596Z,90.50
2017-08-24T00:27:00.253Z,90.30
2017-08-24T00:29:27.873Z,90.20
2017-08-24T00:31:55.565Z,90.30
2017-08-24T00:34:23.227Z,90.20
2017-08-24T00:36:50.807Z,90.10
2017-08-24T00:39:18.470Z,90.20
2017-08-24T00:41:46.179Z,90.20
2017-08-24T00:44:13.790Z,90.10
2017-08-24T00:46:41.462Z,89.30
2017-08-24T00:49:09.081Z,89.30
2017-08-24T00:51:36.700Z,89.00
2017-08-24T00:54:04.329Z,88.20
2017-08-24T00:56:31.988Z,87.50
2017-08-24T00:58:59.581Z,87.40
2017-08-24T01:01:28.205Z,87.30
2017-08-24T01:03:55.974Z,87.60
2017-08-24T01:06:23.640Z,87.60
2017-08-24T01:08:51.265Z,88.00
2017-08-24T01:11:18.955Z,87.80
2017-08-24T01:13:46.671Z,88.10
2017-08-24T01:16:14.280Z,87.20
2017-08-24T01:18:41.878Z,87.20
2017-08-24T01:21:09.580Z,87.10
2017-08-24T01:23:37.195Z,87.50
2017-08-24T01:26:04.850Z,87.20
2017-08-24T01:28:32.569Z,86.50
2017-08-24T01:31:00.209Z,86.90
2017-08-24T01:33:27.878Z,86.60
2017-08-24T01:35:55.644Z,86.40
2017-08-24T01:38:23.274Z,86.20
2017-08-24T01:40:50.895Z,87.00
2017-08-24T01:43:18.618Z,87.00
2017-08-24T01:45:46.238Z,87.30
2017-08-24T01:48:13.899Z,87.10
2017-08-24T01:50:41.529Z,87.10
2017-08-24T01:53:09.810Z,86.40
2017-08-24T01:55:37.492Z,86.40
2017-08-24T01:58:05.132Z,85.90
2017-08-24T02:00:32.721Z,86.50
2017-08-24T02:03:00.369Z,86.40
2017-08-24T02:05:27.992Z,86.60
2017-08-24T02:07:55.571Z,86.40
2017-08-24T02:10:23.243Z,87.10
2017-08-24T02:12:50.828Z,87.30
2017-08-24T02:15:18.412Z,87.60
2017-08-24T02:17:46.060Z,87.20
2017-08-24T02:20:13.675Z,87.30
2017-08-24T02:22:41.256Z,87.50
2017-08-24T02:25:08.998Z,87.90
2017-08-24T02:27:36.640Z,87.60
2017-08-24T02:30:04.251Z,87.80
2017-08-24T02:32:32.021Z,88.10
2017-08-24T02:34:59.676Z,88.20
2017-08-24T02:37:27.390Z,88.20
2017-08-24T02:39:54.986Z,88.30
2017-08-24T02:42:22.605Z,88.30
2017-08-24T02:44:50.236Z,89.00
2017-08-24T02:47:17.854Z,89.00
2017-08-24T02:49:45.479Z,89.30
2017-08-24T02:52:13.166Z,89.50
2017-08-24T02:54:40.741Z,89.80
2017-08-24T02:57:08.323Z,89.90
2017-08-24T02:59:35.938Z,90.40
2017-08-24T03:02:03.602Z,90.10
2017-08-24T03:04:31.220Z,90.20
2017-08-24T03:06:58.926Z,90.20
2017-08-24T03:09:26.530Z,90.10
2017-08-24T03:11:54.143Z,90.00
2017-08-24T03:14:21.788Z,90.00
2017-08-24T03:16:49.388Z,90.00
2017-08-24T03:19:16.964Z,90.10
2017-08-24T03:21:44.626Z,90.00
2017-08-24T03:24:12.378Z,90.60
2017-08-24T03:26:39.986Z,90.50
2017-08-24T03:29:07.623Z,90.40
2017-08-24T03:31:35.224Z,90.50
2017-08-24T03:34:02.796Z,90.50
2017-08-24T03:36:30.445Z,90.40
2017-08-24T03:38:58.081Z,90.50
2017-08-24T03:41:25.668Z,90.40
2017-08-24T03:43:53.289Z,90.70
2017-08-24T03:46:20.890Z,90.80
2017-08-24T03:48:48.495Z,90.90
2017-08-24T03:51:16.109Z,90.70
2017-08-24T03:53:43.724Z,90.60
2017-08-24T03:56:11.362Z,90.80
2017-08-24T03:58:38.946Z,90.60
2017-08-24T04:01:06.538Z,90.50
2017-08-24T04:03:34.221Z,90.50
2017-08-24T04:06:01.809Z,90.50
2017-08-24T04:08:29.421Z,90.50
2017-08-24T04:10:57.064Z,90.50
2017-08-24T04:13:24.637Z,90.50
2017-08-24T04:15:52.218Z,90.70
2017-08-24T04:18:19.887Z,90.70
2017-08-24T04:20:48.101Z,90.70
2017-08-24T04:23:15.752Z,90.50
2017-08-24T04:25:43.419Z,90.70
2017-08-24T04:28:11.066Z,90.50
2017-08-24T04:30:38.670Z,90.30
2017-08-24T04:33:06.283Z,90.40
2017-08-24T04:35:33.917Z,90.50
2017-08-24T04:38:01.485Z,90.60
2017-08-24T04:40:29.098Z,90.40
2017-08-24T04:42:56.725Z,90.90
2017-08-24T04:45:24.378Z,90.80
2017-08-24T04:47:52.015Z,90.70
2017-08-24T04:50:20.619Z,90.80
2017-08-24T04:52:48.203Z,90.80
2017-08-24T04:55:15.870Z,90.90
2017-08-24T04:57:43.479Z,90.90
2017-08-24T05:00:11.246Z,91.00
2017-08-24T05:02:38.954Z,91.20
2017-08-24T05:05:06.557Z,91.40
2017-08-24T05:07:34.149Z,91.20
2017-08-24T05:10:01.802Z,91.60
2017-08-24T05:12:29.869Z,91.00
2017-08-24T05:14:57.477Z,91.10
2017-08-24T05:17:25.159Z,91.20
2017-08-24T05:19:52.750Z,91.10
2017-08-24T05:22:20.362Z,91.00
2017-08-24T05:24:47.973Z,90.90
2017-08-24T05:27:15.601Z,90.70
2017-08-24T05:29:43.181Z,90.70
2017-08-24T05:32:10.817Z,90.70
2017-08-24T05:34:38.577Z,90.80
2017-08-24T05:37:06.162Z,90.40
2017-08-24T05:39:33.766Z,90.70
2017-08-24T05:42:01.438Z,90.70
2017-08-24T05:44:29.062Z,90.60
2017-08-24T05:46:56.655Z,90.70
2017-08-24T05:49:24.387Z,90.40
2017-08-24T05:51:51.978Z,90.40
2017-08-24T05:54:19.553Z,90.30
2017-08-24T05:56:47.197Z,90.20
2017-08-24T05:59:14.837Z,90.30
2017-08-24T06:01:42.459Z,90.20
2017-08-24T06:04:10.064Z,90.20
2017-08-24T06:06:37.785Z,90.10
2017-08-24T06:09:05.355Z,89.40
2017-08-24T06:11:35.106Z,90.00
2017-08-24T06:14:09.420Z,90.10
2017-08-24T06:16:37.104Z,89.80
2017-08-24T06:19:04.753Z,89.30
2017-08-24T06:21:32.411Z,89.40
2017-08-24T06:24:04.679Z,89.90
2017-08-24T06:26:32.266Z,89.60
2017-08-24T06:28:59.897Z,89.90
2017-08-24T06:31:27.582Z,89.40
2017-08-24T06:33:55.229Z,89.60
2017-08-24T06:36:22.865Z,89.80
2017-08-24T06:38:50.526Z,89.60
2017-08-24T06:41:18.137Z,89.20
2017-08-24T06:43:45.782Z,89.30
2017-08-24T06:46:13.507Z,89.60
2017-08-24T06:48:41.183Z,89.50
2017-08-24T06:51:08.863Z,88.80
2017-08-24T06:53:36.511Z,87.40
2017-08-24T06:56:04.088Z,86.60
2017-08-24T06:58:31.686Z,85.20
2017-08-24T07:00:59.613Z,83.30
2017-08-24T07:03:27.189Z,82.20
2017-08-24T07:05:54.823Z,82.60
2017-08-24T07:08:22.485Z,83.30
2017-08-24T07:10:50.119Z,83.50
2017-08-24T07:13:17.718Z,81.90
2017-08-24T07:15:45.334Z,83.40
2017-08-24T07:18:12.930Z,83.70
2017-08-24T07:20:40.546Z,85.30
2017-08-24T07:23:08.165Z,82.80
2017-08-24T07:25:35.773Z,80.60
2017-08-24T07:28:03.402Z,81.10
2017-08-24T07:30:31.005Z,82.20
2017-08-24T07:32:58.697Z,84.10
2017-08-24T07:35:26.300Z,79.80
2017-08-24T07:37:53.883Z,78.30
2017-08-24T07:40:21.589Z,80.30
2017-08-24T07:42:49.227Z,81.30
2017-08-24T07:45:16.869Z,80.00
2017-08-24T07:47:44.521Z,80.60
2017-08-24T07:50:12.147Z,82.00
2017-08-24T07:52:39.741Z,81.90
2017-08-24T07:55:07.334Z,78.70
2017-08-24T07:57:35.020Z,77.60
2017-08-24T08:00:03.364Z,78.60
2017-08-24T08:02:30.973Z,78.60
2017-08-24T08:04:58.574Z,79.90
2017-08-24T08:07:26.182Z,77.10
2017-08-24T08:09:53.833Z,77.30
2017-08-24T08:12:21.451Z,80.00
2017-08-24T08:14:49.130Z,80.50
2017-08-24T08:17:16.738Z,82.20
2017-08-24T08:19:44.337Z,81.70
2017-08-24T08:22:11.992Z,82.10
2017-08-24T08:24:42.476Z,81.10
2017-08-24T08:27:10.608Z,83.30
2017-08-24T08:29:38.222Z,82.60
2017-08-24T08:32:05.882Z,82.90
2017-08-24T08:34:33.535Z,83.50
2017-08-24T08:37:01.176Z,81.70
2017-08-24T08:39:29.563Z,82.10
2017-08-24T08:41:57.925Z,80.50
2017-08-24T08:44:25.542Z,80.80
2017-08-24T08:46:53.149Z,80.80
2017-08-24T08:49:20.799Z,81.10
2017-08-24T08:51:48.498Z,80.50
2017-08-24T08:54:16.073Z,81.30
2017-08-24T08:56:43.667Z,82.70
2017-08-24T08:59:11.339Z,80.70
2017-08-24T09:01:38.933Z,79.60
2017-08-24T09:04:06.541Z,77.50
2017-08-24T09:06:35.919Z,76.80
2017-08-24T09:09:03.614Z,77.90
2017-08-24T09:11:31.227Z,76.30
2017-08-24T09:14:00.830Z,75.80
2017-08-24T09:16:28.574Z,75.40
2017-08-24T09:18:56.286Z,69.40
2017-08-24T09:21:25.126Z,70.00
2017-08-24T09:23:52.726Z,71.40
2017-08-24T09:26:21.923Z,71.10
2017-08-24T09:28:49.677Z,72.80
2017-08-24T09:31:17.386Z,71.00
2017-08-24T09:33:45.006Z,64.60
2017-08-24T09:36:12.587Z,64.40
2017-08-24T09:38:40.222Z,66.50
2017-08-24T09:41:07.809Z,67.40
2017-08-24T09:43:35.400Z,70.50
2017-08-24T09:46:03.035Z,68.40
2017-08-24T09:48:30.596Z,67.80
2017-08-24T09:50:58.205Z,65.00
2017-08-24T09:53:25.837Z,59.10
2017-08-24T09:55:53.439Z,63.70
2017-08-24T09:58:21.033Z,62.30
2017-08-24T10:00:48.651Z,59.70
2017-08-24T10:03:16.298Z,60.30
2017-08-24T10:05:43.929Z,59.20
2017-08-24T10:08:11.583Z,60.00
2017-08-24T10:10:39.295Z,60.20
2017-08-24T10:13:06.913Z,60.00
2017-08-24T10:15:35.559Z,60.00
2017-08-24T10:18:03.178Z,61.90
2017-08-24T10:20:30.791Z,63.00
2017-08-24T10:22:59.414Z,61.40
2017-08-24T10:25:27.880Z,61.40
2017-08-24T10:27:55.451Z,59.50
2017-08-24T10:30:23.273Z,63.30
2017-08-24T10:32:50.949Z,59.80
2017-08-24T10:35:18.612Z,58.30
2017-08-24T10:37:46.274Z,58.70
2017-08-24T10:40:13.993Z,57.40
2017-08-24T10:42:41.675Z,57.60
2017-08-24T10:45:09.260Z,58.20
2017-08-24T10:47:36.877Z,57.50
2017-08-24T10:50:04.456Z,60.50
2017-08-24T10:52:32.057Z,57.40
2017-08-24T10:54:59.696Z,53.00
2017-08-24T10:57:27.287Z,56.30
2017-08-24T10:59:54.887Z,57.90
2017-08-24T11:02:22.596Z,61.30
2017-08-24T11:04:50.221Z,56.10
2017-08-24T11:07:17.833Z,57.80
2017-08-24T11:09:45.520Z,55.60
2017-08-24T11:12:13.102Z,55.20
2017-08-24T11:14:40.801Z,56.90
2017-08-24T11:17:08.754Z,57.60
2017-08-24T11:19:36.335Z,59.70
2017-08-24T11:22:03.932Z,60.00
2017-08-24T11:24:31.526Z,57.60
2017-08-24T11:26:59.209Z,58.90
2017-08-24T11:29:26.818Z,58.80
2017-08-24T11:31:54.399Z,59.80
2017-08-24T11:34:22.192Z,61.90
2017-08-24T11:36:49.795Z,59.50
2017-08-24T11:39:17.379Z,60.40
2017-08-24T11:41:45.068Z,58.20
2017-08-24T11:44:12.745Z,57.80
2017-08-24T11:46:40.374Z,59.00
2017-08-24T11:49:07.941Z,59.30
2017-08-24T11:51:35.552Z,58.20
2017-08-24T11:54:03.135Z,56.80
2017-08-24T11:56:30.727Z,58.10
2017-08-24T11:58:58.387Z,56.70
2017-08-24T12:01:25.978Z,58.00
2017-08-24T12:03:53.565Z,60.60
2017-08-24T12:06:21.195Z,58.60
2017-08-24T12:08:48.788Z,59.10
2017-08-24T12:11:16.533Z,57.40
2017-08-24T12:13:44.202Z,56.00
2017-08-24T12:16:11.918Z,54.40
2017-08-24T12:18:39.525Z,56.30
2017-08-24T12:21:07.114Z,57.70
2017-08-24T12:23:34.851Z,56.50
2017-08-24T12:26:02.541Z,56.70
2017-08-24T12:28:30.168Z,55.60
2017-08-24T12:30:57.892Z,56.10
2017-08-24T12:33:25.513Z,56.60
2017-08-24T12:35:53.873Z,56.30
2017-08-24T12:38:21.479Z,56.30
2017-08-24T12:40:49.081Z,56.90
2017-08-24T12:43:16.662Z,58.30
2017-08-24T12:45:44.294Z,58.20
2017-08-24T12:48:12.038Z,57.90
2017-08-24T12:50:39.705Z,56.20
2017-08-24T12:53:07.334Z,56.50
2017-08-24T12:55:35.648Z,57.60
2017-08-24T12:58:03.274Z,58.10
2017-08-24T13:00:30.928Z,57.20
2017-08-24T13:02:58.511Z,56.30
2017-08-24T13:05:26.168Z,56.50
2017-08-24T13:07:53.796Z,56.00
2017-08-24T13:10:21.360Z,58.00
2017-08-24T13:12:48.984Z,57.00
2017-08-24T13:15:16.585Z,58.30
2017-08-24T13:17:44.174Z,59.30
2017-08-24T13:20:11.795Z,59.10
2017-08-24T13:22:40.385Z,59.20
2017-08-24T13:25:08.546Z,59.10
2017-08-24T13:27:36.149Z,58.10
2017-08-24T13:30:03.881Z,58.60
2017-08-24T13:32:31.474Z,58.20
2017-08-24T13:34:59.075Z,59.30
2017-08-24T13:37:26.664Z,59.10
2017-08-24T13:39:54.253Z,58.90
2017-08-24T13:42:21.860Z,58.00
2017-08-24T13:44:49.453Z,58.90
2017-08-24T13:47:17.130Z,59.40
2017-08-24T13:49:44.783Z,58.20
2017-08-24T13:52:12.351Z,57.70
2017-08-24T13:54:39.946Z,57.50
2017-08-24T13:57:07.556Z,58.40
2017-08-24T13:59:35.138Z,58.00
2017-08-24T14:02:02.716Z,57.80
2017-08-24T14:04:30.315Z,57.80
2017-08-24T14:06:57.879Z,56.60
2017-08-24T14:09:25.510Z,57.80
2017-08-24T14:11:53.162Z,57.90
2017-08-24T14:14:20.752Z,57.50
2017-08-24T14:16:48.331Z,58.40
2017-08-24T14:19:16.062Z,60.00
2017-08-24T14:21:43.671Z,59.00
2017-08-24T14:24:11.297Z,59.00
2017-08-24T14:26:38.937Z,58.00
2017-08-24T14:29:06.605Z,57.80
2017-08-24T14:31:34.192Z,58.70
2017-08-24T14:34:01.922Z,59.00
2017-08-24T14:36:29.490Z,59.80
2017-08-24T14:38:57.083Z,59.30
2017-08-24T14:41:24.703Z,60.00
2017-08-24T14:43:52.395Z,60.80
2017-08-24T14:46:20.024Z,60.30
2017-08-24T14:48:47.601Z,59.70
2017-08-24T14:51:15.343Z,58.50
2017-08-24T14:53:42.975Z,58.40
2017-08-24T14:56:10.570Z,58.00
2017-08-24T14:58:38.171Z,56.20
2017-08-24T15:01:05.785Z,57.20
2017-08-24T15:03:33.405Z,56.90
2017-08-24T15:06:01.024Z,58.10
2017-08-24T15:08:28.642Z,58.40
2017-08-24T15:10:56.237Z,58.90
2017-08-24T15:13:23.893Z,57.90
2017-08-24T15:15:51.532Z,58.20
2017-08-24T15:18:19.163Z,59.00
2017-08-24T15:20:46.766Z,58.40
2017-08-24T15:23:14.453Z,59.20
2017-08-24T15:25:42.027Z,58.00
2017-08-24T15:28:09.605Z,58.30
2017-08-24T15:30:37.207Z,59.80
2017-08-24T15:33:04.793Z,59.70
2017-08-24T15:35:32.409Z,59.70
2017-08-24T15:38:00.016Z,58.50
2017-08-24T15:40:28.588Z,58.30
2017-08-24T15:42:56.206Z,58.80
2017-08-24T15:45:23.820Z,59.40
2017-08-24T15:47:51.418Z,58.70
2017-08-24T15:50:18.991Z,59.10
2017-08-24T15:52:46.625Z,58.80
2017-08-24T15:55:14.214Z,59.00
2017-08-24T15:57:41.791Z,59.40
2017-08-24T16:00:09.417Z,60.20
2017-08-24T16:02:37.062Z,58.90
2017-08-24T16:05:04.688Z,59.90
2017-08-24T16:07:32.303Z,59.70
2017-08-24T16:09:59.902Z,60.50
2017-08-24T16:12:27.489Z,60.30
2017-08-24T16:14:55.103Z,58.70
2017-08-24T16:17:22.869Z,60.10
2017-08-24T16:19:50.516Z,60.80
2017-08-24T16:22:18.148Z,58.70
2017-08-24T16:24:45.754Z,61.00
2017-08-24T16:27:13.367Z,58.50
2017-08-24T16:29:41.919Z,59.30
2017-08-24T16:32:09.534Z,59.70
2017-08-24T16:34:37.128Z,58.90
2017-08-24T16:37:04.801Z,60.10
2017-08-24T16:39:32.375Z,59.60
2017-08-24T16:41:59.999Z,59.90
2017-08-24T16:44:27.681Z,59.50
2017-08-24T16:46:55.270Z,59.20
2017-08-24T16:49:22.845Z,59.50
2017-08-24T16:51:50.537Z,59.20
2017-08-24T16:54:18.137Z,60.70
2017-08-24T16:56:45.771Z,62.20
2017-08-24T16:59:13.422Z,61.90
2017-08-24T17:01:41.039Z,62.80
2017-08-24T17:04:08.629Z,62.40
2017-08-24T17:06:36.293Z,61.40
2017-08-24T17:09:04.007Z,60.90
2017-08-24T17:11:31.568Z,62.50
2017-08-24T17:13:59.178Z,63.20
2017-08-24T17:16:26.837Z,63.90
2017-08-24T17:18:54.429Z,64.80
2017-08-24T17:21:22.069Z,65.00
2017-08-24T17:23:49.712Z,64.30
2017-08-24T17:26:17.340Z,64.80
2017-08-24T17:28:44.917Z,63.30
2017-08-24T17:31:12.533Z,64.70
2017-08-24T17:33:40.133Z,65.20
2017-08-24T17:36:07.769Z,65.80
2017-08-24T17:38:35.438Z,65.20
2017-08-24T17:41:03.076Z,65.70
2017-08-24T17:43:30.681Z,66.20
2017-08-24T17:45:58.287Z,66.90
2017-08-24T17:48:25.922Z,66.00
2017-08-24T17:50:53.546Z,67.10
2017-08-24T17:53:21.162Z,66.50
2017-08-24T17:55:48.801Z,68.40
2017-08-24T17:58:16.409Z,68.50
2017-08-24T18:00:44.005Z,67.10
2017-08-24T18:03:11.686Z,67.20
2017-08-24T18:05:39.273Z,68.00
2017-08-24T18:08:06.860Z,67.50
2017-08-24T18:10:34.542Z,67.60
2017-08-24T18:13:02.189Z,68.70
2017-08-24T18:15:29.826Z,68.30
2017-08-24T18:17:57.503Z,69.10
2017-08-24T18:20:25.155Z,70.30
2017-08-24T18:22:52.792Z,71.30
2017-08-24T18:25:20.390Z,71.70
2017-08-24T18:27:48.124Z,72.00
2017-08-24T18:30:15.804Z,71.30
2017-08-24T18:32:43.412Z,72.20
2017-08-24T18:35:11.077Z,70.40
2017-08-24T18:37:38.723Z,69.30
2017-08-24T18:40:06.348Z,68.40
2017-08-24T18:42:34.169Z,69.70
2017-08-24T18:45:01.867Z,70.50
2017-08-24T18:47:29.448Z,71.30
2017-08-24T18:49:57.051Z,72.10
2017-08-24T18:52:24.680Z,73.80
2017-08-24T18:54:52.258Z,73.30
2017-08-24T18:57:19.944Z,74.20
2017-08-24T18:59:47.619Z,73.30
2017-08-24T19:02:17.801Z,73.30
2017-08-24T19:04:45.411Z,73.60
2017-08-24T19:07:13.034Z,73.60
2017-08-24T19:09:40.656Z,75.20
2017-08-24T19:12:08.316Z,73.80
2017-08-24T19:14:35.931Z,74.80
2017-08-24T19:17:03.576Z,74.30
2017-08-24T19:19:31.235Z,74.40
2017-08-24T19:21:59.709Z,74.30
2017-08-24T19:24:27.352Z,74.40
2017-08-24T19:26:55.029Z,73.80
2017-08-24T19:29:22.658Z,74.20
2017-08-24T19:31:50.265Z,74.10
2017-08-24T19:34:17.894Z,75.60
2017-08-24T19:36:45.581Z,75.50
2017-08-24T19:39:13.200Z,75.70
2017-08-24T19:41:40.779Z,76.40
2017-08-24T19:44:08.424Z,75.50
2017-08-24T19:46:36.037Z,75.40
2017-08-24T19:49:03.694Z,75.50
2017-08-24T19:51:31.383Z,75.00
2017-08-24T19:53:59.063Z,74.20
2017-08-24T19:56:26.679Z,75.10
2017-08-24T19:58:54.306Z,75.00
2017-08-24T20:01:21.945Z,74.30
2017-08-24T20:03:49.550Z,74.60
2017-08-24T20:06:17.207Z,74.70
2017-08-24T20:08:44.890Z,73.80
2017-08-24T20:11:12.603Z,74.50
2017-08-24T20:13:40.318Z,75.80
2017-08-24T20:16:07.943Z,74.80
2017-08-24T20:18:35.664Z,75.90
2017-08-24T20:21:03.286Z,75.30
2017-08-24T20:23:30.920Z,77.10
2017-08-24T20:25:58.582Z,77.80
2017-08-24T20:28:26.175Z,77.90
2017-08-24T20:30:53.775Z,78.10
2017-08-24T20:33:21.500Z,77.60
2017-08-24T20:35:49.146Z,77.90
2017-08-24T20:38:16.731Z,78.40
2017-08-24T20:40:44.482Z,79.20
2017-08-24T20:43:12.170Z,79.20
2017-08-24T20:45:39.763Z,79.80
2017-08-24T20:48:07.421Z,79.50
2017-08-24T20:50:35.022Z,80.20
2017-08-24T20:53:02.719Z,81.40
2017-08-24T20:55:30.370Z,81.40
2017-08-24T20:57:58.026Z,81.70
2017-08-24T21:00:25.789Z,82.10
2017-08-24T21:02:53.363Z,83.50
2017-08-24T21:05:21.001Z,83.60
2017-08-24T21:07:48.573Z,82.60
2017-08-24T21:10:16.168Z,82.80
2017-08-24T21:12:43.862Z,83.70
2017-08-24T21:15:11.543Z,84.30
2017-08-24T21:17:39.195Z,84.70
2017-08-24T21:20:06.818Z,85.30
2017-08-24T21:22:34.475Z,84.00
2017-08-24T21:25:02.091Z,84.40
2017-08-24T21:27:29.768Z,84.80
2017-08-24T21:29:57.429Z,84.40
2017-08-24T21:32:25.070Z,84.80
2017-08-24T21:34:52.712Z,84.70
2017-08-24T21:37:20.314Z,85.30
2017-08-24T21:39:47.919Z,86.40
2017-08-24T21:42:15.587Z,85.90
2017-08-24T21:44:43.222Z,86.60
2017-08-24T21:47:10.880Z,86.60
2017-08-24T21:49:38.534Z,85.60
2017-08-24T21:52:06.151Z,85.80
2017-08-24T21:54:33.764Z,86.20
2017-08-24T21:57:01.396Z,85.80
2017-08-24T21:59:28.997Z,86.20
2017-08-24T22:01:56.758Z,85.90
2017-08-24T22:04:24.655Z,86.00
2017-08-24T22:06:52.263Z,85.80
2017-08-24T22:09:19.855Z,86.60
2017-08-24T22:11:47.539Z,86.30
2017-08-24T22:14:15.128Z,86.60
2017-08-24T22:16:42.767Z,86.60
2017-08-24T22:19:10.487Z,86.00
2017-08-24T22:21:38.193Z,86.00
2017-08-24T22:24:05.801Z,85.90
2017-08-24T22:26:33.453Z,85.40
2017-08-24T22:29:01.080Z,84.70
2017-08-24T22:31:28.761Z,84.40
2017-08-24T22:33:56.412Z,85.10
2017-08-24T22:36:24.079Z,86.10
2017-08-24T22:38:51.695Z,86.90
2017-08-24T22:41:19.272Z,86.90
2017-08-24T22:43:46.867Z,87.20
2017-08-24T22:46:14.437Z,87.60
2017-08-24T22:48:42.044Z,88.90
2017-08-24T22:51:09.735Z,89.30
2017-08-24T22:53:43.062Z,89.50
2017-08-24T22:56:16.535Z,90.10
2017-08-24T22:58:49.767Z,90.10
2017-08-24T23:01:23.082Z,90.10
2017-08-24T23:04:06.292Z,90.00
2017-08-24T23:06:33.946Z,90.10
2017-08-24T23:09:01.576Z,90.00
2017-08-24T23:11:29.186Z,90.00
2017-08-24T23:13:56.859Z,89.50
2017-08-24T23:16:24.470Z,90.00
2017-08-24T23:18:52.186Z,90.20
2017-08-24T23:21:19.859Z,90.60
2017-08-24T23:23:47.495Z,90.50
2017-08-24T23:26:15.120Z,90.50
2017-08-24T23:28:42.714Z,90.90
2017-08-24T23:31:10.354Z,91.00
2017-08-24T23:33:38.034Z,91.00
2017-08-24T23:36:05.656Z,90.80
2017-08-24T23:38:33.238Z,90.90
2017-08-24T23:41:00.854Z,91.00
2017-08-24T23:43:28.555Z,91.00
2017-08-24T23:45:56.242Z,91.10
2017-08-24T23:48:23.862Z,90.90
2017-08-24T23:50:51.443Z,91.30
2017-08-24T23:53:19.065Z,91.20
2017-08-24T23:55:46.719Z,91.30
2017-08-24T23:58:14.413Z,91.30
